Barfleur — FNIE — position and weather

sailwx.info

Track history (hours):
 
Tides and Currents Weather Stations Pressure Air Temp Water Temp Dewpoint Dewpoint Depression Visibility Wind Speed Wind Dir Waves Ship Positions

Barfleur

Operator: Brittany Ferries

Last reported at 2018-Jan-18 10:10 UTC. Time now 2018-Jan-18 17:38 UTC.
Position N 50°27' W 001°54'.

Length 158 m; draft 5 m.

Type: Passenger vessel. MMSI: 227289000.

Date/timePositionNaut miles runAvg speedWind from/ knotsBaromVisibWave heightAir tempDewpointWater temp
2018-Jan-18 10:10N 50°27' W 001°54'317.3
2018-Jan-18 10:00N 50°30' W 001°54'816.3
2018-Jan-18 09:30N 50°38' W 001°54'511.0
2018-Jan-18 09:00N 50°42' W 001°59'0 0.6
2018-Jan-18 08:30N 50°42' W 001°59'0 0.0
2018-Jan-18 08:00N 50°42' W 001°59'0 0.0
2018-Jan-18 07:29N 50°42' W 001°59'1 2.8
2018-Jan-18 07:00N 50°42' W 001°57'612.4
2018-Jan-18 06:30N 50°37' W 001°51'1 1.4
2018-Jan-18 06:01N 50°37' W 001°50'713.4
2018-Jan-18 05:30N 50°31' W 001°47'  
2018-Jan-12 15:01N 49°39' W 001°37'0 0.0
2018-Jan-12 14:31N 49°39' W 001°37'0 0.0
2018-Jan-12 14:00N 49°39' W 001°37'0 0.0
2018-Jan-12 13:31N 49°39' W 001°37'0 0.0
2018-Jan-12 13:01N 49°39' W 001°37'0 0.2
2018-Jan-12 12:30N 49°39' W 001°37'612.4
2018-Jan-12 12:00N 49°45' W 001°41'917.7
2018-Jan-12 11:31N 49°53' W 001°44'917.8
2018-Jan-12 11:00N 50°02' W 001°47'816.7
2018-Jan-12 10:30N 50°10' W 001°49'2117.5
2018-Jan-12 09:18N 50°31' W 001°53'618.9
2018-Jan-12 09:00N 50°37' W 001°54'612.3
2018-Jan-12 08:30N 50°42' W 001°58'1 1.8
2018-Jan-12 08:00N 50°42' W 001°59'0 0.0
2018-Jan-12 07:30N 50°42' W 001°59'0 0.0
2018-Jan-12 07:00N 50°42' W 001°59'0 0.0
2018-Jan-12 06:30N 50°42' W 001°59'0 0.0
2018-Jan-12 05:59N 50°42' W 001°59'0 0.0
2018-Jan-12 05:30N 50°42' W 001°59'0 0.0
2018-Jan-12 05:00N 50°42' W 001°59'0 0.0
2018-Jan-12 04:26N 50°42' W 001°59'0 0.0
2018-Jan-12 04:00N 50°42' W 001°59'0 0.0
2018-Jan-12 03:30N 50°42' W 001°59'0 0.0
2018-Jan-12 03:00N 50°42' W 001°59'0 0.0
2018-Jan-12 02:30N 50°42' W 001°59'0 0.0
2018-Jan-12 02:00N 50°42' W 001°59'0 0.0
2018-Jan-12 01:30N 50°42' W 001°59'0 0.0
2018-Jan-12 00:57N 50°42' W 001°59'0 0.0
2018-Jan-12 00:30N 50°42' W 001°59'0 0.0
2018-Jan-11 23:59N 50°42' W 001°59'0 0.0
2018-Jan-11 23:30N 50°42' W 001°59'0 0.0
2018-Jan-11 23:00N 50°42' W 001°59'0 0.0
2018-Jan-11 22:30N 50°42' W 001°59'0 0.0
2018-Jan-11 21:59N 50°42' W 001°59'2 3.2
2018-Jan-11 21:31N 50°42' W 001°57'612.3
2018-Jan-11 21:00N 50°37' W 001°52'917.3
2018-Jan-11 20:30N 50°28' W 001°49'2317.9
2018-Jan-11 19:12N 50°05' W 001°42'317.7
2018-Jan-11 19:00N 50°02' W 001°41'917.7
2018-Jan-11 18:30N 49°53' W 001°39'917.6
2018-Jan-11 18:01N 49°45' W 001°36'611.6
2018-Jan-11 17:30N 49°39' W 001°37'0 0.0
2018-Jan-11 17:00N 49°39' W 001°37'0 0.0
2018-Jan-11 16:30N 49°39' W 001°37'0 0.0
2018-Jan-11 16:00N 49°39' W 001°37'0 0.1
2018-Jan-11 15:31N 49°39' W 001°37'0 0.0
2018-Jan-11 15:01N 49°39' W 001°37'0 0.0
2018-Jan-11 14:30N 49°39' W 001°37'0 0.0
2018-Jan-11 14:00N 49°39' W 001°37'2 1.6
2018-Jan-11 12:28N 49°41' W 001°39'4918.6
2018-Jan-11 09:49N 50°29' W 001°52'619.3
2018-Jan-11 09:30N 50°35' W 001°54'713.6
2018-Jan-11 09:00N 50°42' W 001°57'2 3.3
2018-Jan-11 08:30N 50°42' W 001°59'0 0.0
2018-Jan-11 08:00N 50°42' W 001°59'0 0.0
2018-Jan-11 07:30N 50°42' W 001°59'0 0.0
2018-Jan-11 07:00N 50°42' W 001°59'1 3.0
2018-Jan-11 06:30N 50°42' W 001°57'612.0
2018-Jan-11 06:00N 50°36' W 001°53'816.1
2018-Jan-11 05:30N 50°28' W 001°52'2 0.1
2018-Jan-10 09:17N 50°30' W 001°52'518.9
2018-Jan-10 09:00N 50°35' W 001°53'713.9
2018-Jan-10 08:30N 50°42' W 001°57'2 3.3
2018-Jan-10 08:00N 50°42' W 001°59'0 0.0
2018-Jan-10 07:30N 50°42' W 001°59'0 0.0
2018-Jan-10 07:00N 50°42' W 001°59'2 3.6
2018-Jan-10 06:30N 50°41' W 001°57'613.0
2018-Jan-10 06:00N 50°36' W 001°53'714.2
2018-Jan-10 05:30N 50°28' W 001°51'714.0
2018-Jan-10 05:00N 50°21' W 001°50'43 2.6
2018-Jan-09 12:24N 49°40' W 001°37'5016.6
2018-Jan-09 09:23N 50°29' W 001°52'718.6
2018-Jan-09 09:00N 50°36' W 001°54'612.9
2018-Jan-09 08:30N 50°42' W 001°57'2 3.1
2018-Jan-09 08:00N 50°42' W 001°59'0 0.0
2018-Jan-09 07:30N 50°42' W 001°59'0 0.0
2018-Jan-09 07:00N 50°42' W 001°59'0 0.0
2018-Jan-09 06:30N 50°42' W 001°59'0 0.0
2018-Jan-09 06:00N 50°42' W 001°59'0 0.0
2018-Jan-09 05:30N 50°42' W 001°59'0 0.0
2018-Jan-09 05:00N 50°42' W 001°59'0 0.0
2018-Jan-09 04:30N 50°42' W 001°59'0 0.0
2018-Jan-09 04:00N 50°42' W 001°59'0 0.0
2018-Jan-09 03:30N 50°42' W 001°59'0 0.0
2018-Jan-09 03:00N 50°42' W 001°59'0 0.0
2018-Jan-09 02:30N 50°42' W 001°59'0 0.0
2018-Jan-09 02:00N 50°42' W 001°59'0 0.0
2018-Jan-09 01:30N 50°42' W 001°59'0 0.0
2018-Jan-09 01:00N 50°42' W 001°59'0 0.0
2018-Jan-09 00:30N 50°42' W 001°59'0 0.0
2018-Jan-09 00:00N 50°42' W 001°59'0 0.0
2018-Jan-08 23:30N 50°42' W 001°59'0 0.0
2018-Jan-08 23:00N 50°42' W 001°59'0 0.0
2018-Jan-08 22:30N 50°42' W 001°59'0 0.0
2018-Jan-08 22:00N 50°42' W 001°59'1 1.9
2018-Jan-08 21:30N 50°42' W 001°58'5 9.7
2018-Jan-08 21:01N 50°38' W 001°54'917.8
2018-Jan-08 20:30N 50°29' W 001°52'5018.0
2018-Jan-08 17:45N 49°40' W 001°39'  
Track history (hours):
 
Tides and Currents Weather Stations Pressure Air Temp Water Temp Dewpoint Dewpoint Depression Visibility Wind Speed Wind Dir Waves Ship Positions

Barfleur

Operator: Brittany Ferries

Last reported at 2018-Jan-18 10:10 UTC. Time now 2018-Jan-18 17:38 UTC.
Position N 50°27' W 001°54'.

Length 158 m; draft 5 m.

Type: Passenger vessel. MMSI: 227289000.

Date/timePositionNaut miles runAvg speedWind from/ knotsBaromVisibWave heightAir tempDewpointWater temp
2018-Jan-18 10:10N 50°27' W 001°54'317.3
2018-Jan-18 10:00N 50°30' W 001°54'816.3
2018-Jan-18 09:30N 50°38' W 001°54'511.0
2018-Jan-18 09:00N 50°42' W 001°59'0 0.6
2018-Jan-18 08:30N 50°42' W 001°59'0 0.0
2018-Jan-18 08:00N 50°42' W 001°59'0 0.0
2018-Jan-18 07:29N 50°42' W 001°59'1 2.8
2018-Jan-18 07:00N 50°42' W 001°57'612.4
2018-Jan-18 06:30N 50°37' W 001°51'1 1.4
2018-Jan-18 06:01N 50°37' W 001°50'713.4
2018-Jan-18 05:30N 50°31' W 001°47'  
2018-Jan-12 15:01N 49°39' W 001°37'0 0.0
2018-Jan-12 14:31N 49°39' W 001°37'0 0.0
2018-Jan-12 14:00N 49°39' W 001°37'0 0.0
2018-Jan-12 13:31N 49°39' W 001°37'0 0.0
2018-Jan-12 13:01N 49°39' W 001°37'0 0.2
2018-Jan-12 12:30N 49°39' W 001°37'612.4
2018-Jan-12 12:00N 49°45' W 001°41'917.7
2018-Jan-12 11:31N 49°53' W 001°44'917.8
2018-Jan-12 11:00N 50°02' W 001°47'816.7
2018-Jan-12 10:30N 50°10' W 001°49'2117.5
2018-Jan-12 09:18N 50°31' W 001°53'618.9
2018-Jan-12 09:00N 50°37' W 001°54'612.3
2018-Jan-12 08:30N 50°42' W 001°58'1 1.8
2018-Jan-12 08:00N 50°42' W 001°59'0 0.0
2018-Jan-12 07:30N 50°42' W 001°59'0 0.0
2018-Jan-12 07:00N 50°42' W 001°59'0 0.0
2018-Jan-12 06:30N 50°42' W 001°59'0 0.0
2018-Jan-12 05:59N 50°42' W 001°59'0 0.0
2018-Jan-12 05:30N 50°42' W 001°59'0 0.0
2018-Jan-12 05:00N 50°42' W 001°59'0 0.0
2018-Jan-12 04:26N 50°42' W 001°59'0 0.0
2018-Jan-12 04:00N 50°42' W 001°59'0 0.0
2018-Jan-12 03:30N 50°42' W 001°59'0 0.0
2018-Jan-12 03:00N 50°42' W 001°59'0 0.0
2018-Jan-12 02:30N 50°42' W 001°59'0 0.0
2018-Jan-12 02:00N 50°42' W 001°59'0 0.0
2018-Jan-12 01:30N 50°42' W 001°59'0 0.0
2018-Jan-12 00:57N 50°42' W 001°59'0 0.0
2018-Jan-12 00:30N 50°42' W 001°59'0 0.0
2018-Jan-11 23:59N 50°42' W 001°59'0 0.0
2018-Jan-11 23:30N 50°42' W 001°59'0 0.0
2018-Jan-11 23:00N 50°42' W 001°59'0 0.0
2018-Jan-11 22:30N 50°42' W 001°59'0 0.0
2018-Jan-11 21:59N 50°42' W 001°59'2 3.2
2018-Jan-11 21:31N 50°42' W 001°57'612.3
2018-Jan-11 21:00N 50°37' W 001°52'917.3
2018-Jan-11 20:30N 50°28' W 001°49'2317.9
2018-Jan-11 19:12N 50°05' W 001°42'317.7
2018-Jan-11 19:00N 50°02' W 001°41'917.7
2018-Jan-11 18:30N 49°53' W 001°39'917.6
2018-Jan-11 18:01N 49°45' W 001°36'611.6
2018-Jan-11 17:30N 49°39' W 001°37'0 0.0
2018-Jan-11 17:00N 49°39' W 001°37'0 0.0
2018-Jan-11 16:30N 49°39' W 001°37'0 0.0
2018-Jan-11 16:00N 49°39' W 001°37'0 0.1
2018-Jan-11 15:31N 49°39' W 001°37'0 0.0
2018-Jan-11 15:01N 49°39' W 001°37'0 0.0
2018-Jan-11 14:30N 49°39' W 001°37'0 0.0
2018-Jan-11 14:00N 49°39' W 001°37'2 1.6
2018-Jan-11 12:28N 49°41' W 001°39'4918.6
2018-Jan-11 09:49N 50°29' W 001°52'619.3
2018-Jan-11 09:30N 50°35' W 001°54'713.6
2018-Jan-11 09:00N 50°42' W 001°57'2 3.3
2018-Jan-11 08:30N 50°42' W 001°59'0 0.0
2018-Jan-11 08:00N 50°42' W 001°59'0 0.0
2018-Jan-11 07:30N 50°42' W 001°59'0 0.0
2018-Jan-11 07:00N 50°42' W 001°59'1 3.0
2018-Jan-11 06:30N 50°42' W 001°57'612.0
2018-Jan-11 06:00N 50°36' W 001°53'816.1
2018-Jan-11 05:30N 50°28' W 001°52'2 0.1
2018-Jan-10 09:17N 50°30' W 001°52'518.9
2018-Jan-10 09:00N 50°35' W 001°53'713.9
2018-Jan-10 08:30N 50°42' W 001°57'2 3.3
2018-Jan-10 08:00N 50°42' W 001°59'0 0.0
2018-Jan-10 07:30N 50°42' W 001°59'0 0.0
2018-Jan-10 07:00N 50°42' W 001°59'2 3.6
2018-Jan-10 06:30N 50°41' W 001°57'613.0
2018-Jan-10 06:00N 50°36' W 001°53'714.2
2018-Jan-10 05:30N 50°28' W 001°51'714.0
2018-Jan-10 05:00N 50°21' W 001°50'43 2.6
2018-Jan-09 12:24N 49°40' W 001°37'5016.6
2018-Jan-09 09:23N 50°29' W 001°52'718.6
2018-Jan-09 09:00N 50°36' W 001°54'612.9
2018-Jan-09 08:30N 50°42' W 001°57'2 3.1
2018-Jan-09 08:00N 50°42' W 001°59'0 0.0
2018-Jan-09 07:30N 50°42' W 001°59'0 0.0
2018-Jan-09 07:00N 50°42' W 001°59'0 0.0
2018-Jan-09 06:30N 50°42' W 001°59'0 0.0
2018-Jan-09 06:00N 50°42' W 001°59'0 0.0
2018-Jan-09 05:30N 50°42' W 001°59'0 0.0
2018-Jan-09 05:00N 50°42' W 001°59'0 0.0
2018-Jan-09 04:30N 50°42' W 001°59'0 0.0
2018-Jan-09 04:00N 50°42' W 001°59'0 0.0
2018-Jan-09 03:30N 50°42' W 001°59'0 0.0
2018-Jan-09 03:00N 50°42' W 001°59'0 0.0
2018-Jan-09 02:30N 50°42' W 001°59'0 0.0
2018-Jan-09 02:00N 50°42' W 001°59'0 0.0
2018-Jan-09 01:30N 50°42' W 001°59'0 0.0
2018-Jan-09 01:00N 50°42' W 001°59'0 0.0
2018-Jan-09 00:30N 50°42' W 001°59'0 0.0
2018-Jan-09 00:00N 50°42' W 001°59'0 0.0
2018-Jan-08 23:30N 50°42' W 001°59'0 0.0
2018-Jan-08 23:00N 50°42' W 001°59'0 0.0
2018-Jan-08 22:30N 50°42' W 001°59'0 0.0
2018-Jan-08 22:00N 50°42' W 001°59'1 1.9
2018-Jan-08 21:30N 50°42' W 001°58'5 9.7
2018-Jan-08 21:01N 50°38' W 001°54'917.8
2018-Jan-08 20:30N 50°29' W 001°52'5018.0
2018-Jan-08 17:45N 49°40' W 001°39'  

Dump ship's entire track history